sensor_id;sensor_type;location;lat;lon;timestamp;temperature;humidity
15819;DHT22;8010;53.986;12.106;2023-02-15T00:01:40;2.00;99.90
15819;DHT22;8010;53.986;12.106;2023-02-15T00:04:07;2.00;99.90
15819;DHT22;8010;53.986;12.106;2023-02-15T00:06:33;2.00;99.90
15819;DHT22;8010;53.986;12.106;2023-02-15T00:08:59;1.90;99.90
15819;DHT22;8010;53.986;12.106;2023-02-15T00:11:25;1.90;99.90
15819;DHT22;8010;53.986;12.106;2023-02-15T00:14:11;1.90;99.90
15819;DHT22;8010;53.986;12.106;2023-02-15T00:16:38;1.90;99.90
15819;DHT22;8010;53.986;12.106;2023-02-15T00:19:04;1.90;99.90
15819;DHT22;8010;53.986;12.106;2023-02-15T00:21:32;1.80;99.90
15819;DHT22;8010;53.986;12.106;2023-02-15T00:23:59;1.80;99.90
15819;DHT22;8010;53.986;12.106;2023-02-15T00:26:25;1.80;99.90
15819;DHT22;8010;53.986;12.106;2023-02-15T00:28:51;1.80;99.90
15819;DHT22;8010;53.986;12.106;2023-02-15T00:31:17;1.80;99.90
15819;DHT22;8010;53.986;12.106;2023-02-15T00:33:42;1.80;99.90
15819;DHT22;8010;53.986;12.106;2023-02-15T00:36:09;1.80;99.90
15819;DHT22;8010;53.986;12.106;2023-02-15T00:38:36;1.80;99.90
15819;DHT22;8010;53.986;12.106;2023-02-15T00:41:04;1.80;99.90
15819;DHT22;8010;53.986;12.106;2023-02-15T00:43:31;1.80;99.90
15819;DHT22;8010;53.986;12.106;2023-02-15T00:45:57;1.70;99.90
15819;DHT22;8010;53.986;12.106;2023-02-15T00:48:22;1.70;99.90
15819;DHT22;8010;53.986;12.106;2023-02-15T00:50:56;1.70;99.90
15819;DHT22;8010;53.986;12.106;2023-02-15T00:53:23;1.70;99.90
15819;DHT22;8010;53.986;12.106;2023-02-15T00:55:49;1.70;99.90
15819;DHT22;8010;53.986;12.106;2023-02-15T00:58:15;1.60;99.90
15819;DHT22;8010;53.986;12.106;2023-02-15T01:00:43;1.60;99.90
15819;DHT22;8010;53.986;12.106;2023-02-15T01:03:09;1.60;99.90
15819;DHT22;8010;53.986;12.106;2023-02-15T01:05:34;1.60;99.90
15819;DHT22;8010;53.986;12.106;2023-02-15T01:08:00;1.60;99.90
15819;DHT22;8010;53.986;12.106;2023-02-15T01:10:27;1.60;99.90
15819;DHT22;8010;53.986;12.106;2023-02-15T01:12:53;1.50;99.90
15819;DHT22;8010;53.986;12.106;2023-02-15T01:15:19;1.50;99.90
15819;DHT22;8010;53.986;12.106;2023-02-15T01:17:45;1.50;99.90
15819;DHT22;8010;53.986;12.106;2023-02-15T01:20:17;1.40;99.90
15819;DHT22;8010;53.986;12.106;2023-02-15T01:22:42;1.40;99.90
15819;DHT22;8010;53.986;12.106;2023-02-15T01:25:08;1.30;99.90
15819;DHT22;8010;53.986;12.106;2023-02-15T01:27:33;1.30;99.90
15819;DHT22;8010;53.986;12.106;2023-02-15T01:29:59;1.30;99.90
15819;DHT22;8010;53.986;12.106;2023-02-15T01:32:24;1.20;99.90
15819;DHT22;8010;53.986;12.106;2023-02-15T01:34:52;1.30;99.90
15819;DHT22;8010;53.986;12.106;2023-02-15T01:37:18;1.30;99.90
15819;DHT22;8010;53.986;12.106;2023-02-15T01:39:43;1.30;99.90
15819;DHT22;8010;53.986;12.106;2023-02-15T01:42:12;1.20;99.90
15819;DHT22;8010;53.986;12.106;2023-02-15T01:44:48;1.20;99.90
15819;DHT22;8010;53.986;12.106;2023-02-15T01:47:29;1.20;99.90
15819;DHT22;8010;53.986;12.106;2023-02-15T01:52:57;1.10;99.90
15819;DHT22;8010;53.986;12.106;2023-02-15T01:55:25;1.00;99.90
15819;DHT22;8010;53.986;12.106;2023-02-15T01:57:52;0.90;99.90
15819;DHT22;8010;53.986;12.106;2023-02-15T02:00:18;0.90;99.90
15819;DHT22;8010;53.986;12.106;2023-02-15T02:02:45;1.00;99.90
15819;DHT22;8010;53.986;12.106;2023-02-15T02:05:12;1.00;99.90
15819;DHT22;8010;53.986;12.106;2023-02-15T02:07:41;1.10;99.90
15819;DHT22;8010;53.986;12.106;2023-02-15T02:10:11;1.10;99.90
15819;DHT22;8010;53.986;12.106;2023-02-15T02:12:39;1.10;99.90
15819;DHT22;8010;53.986;12.106;2023-02-15T02:15:06;1.10;99.90
15819;DHT22;8010;53.986;12.106;2023-02-15T02:26:23;1.20;99.90
15819;DHT22;8010;53.986;12.106;2023-02-15T02:31:44;1.20;99.90
15819;DHT22;8010;53.986;12.106;2023-02-15T02:34:25;1.20;99.90
15819;DHT22;8010;53.986;12.106;2023-02-15T02:37:23;1.30;99.90
15819;DHT22;8010;53.986;12.106;2023-02-15T02:42:40;1.20;99.90
15819;DHT22;8010;53.986;12.106;2023-02-15T02:45:10;1.20;99.90
15819;DHT22;8010;53.986;12.106;2023-02-15T02:47:54;1.20;99.90
15819;DHT22;8010;53.986;12.106;2023-02-15T02:50:26;1.20;99.90
15819;DHT22;8010;53.986;12.106;2023-02-15T02:52:54;1.20;99.90
15819;DHT22;8010;53.986;12.106;2023-02-15T02:55:25;1.20;99.90
15819;DHT22;8010;53.986;12.106;2023-02-15T02:58:23;1.20;99.90
15819;DHT22;8010;53.986;12.106;2023-02-15T03:01:00;1.10;99.90
15819;DHT22;8010;53.986;12.106;2023-02-15T03:03:36;1.10;99.90
15819;DHT22;8010;53.986;12.106;2023-02-15T03:06:08;1.10;99.90
15819;DHT22;8010;53.986;12.106;2023-02-15T03:08:43;1.10;99.90
15819;DHT22;8010;53.986;12.106;2023-02-15T03:11:11;1.00;99.90
15819;DHT22;8010;53.986;12.106;2023-02-15T03:13:37;1.00;99.90
15819;DHT22;8010;53.986;12.106;2023-02-15T03:16:05;1.00;99.90
15819;DHT22;8010;53.986;12.106;2023-02-15T03:19:05;0.90;99.90
15819;DHT22;8010;53.986;12.106;2023-02-15T03:21:48;0.90;99.90
15819;DHT22;8010;53.986;12.106;2023-02-15T03:24:24;1.00;99.90
15819;DHT22;8010;53.986;12.106;2023-02-15T03:26:53;1.00;99.90
15819;DHT22;8010;53.986;12.106;2023-02-15T03:29:23;1.00;99.90
15819;DHT22;8010;53.986;12.106;2023-02-15T03:31:53;1.00;99.90
15819;DHT22;8010;53.986;12.106;2023-02-15T03:34:20;0.90;99.90
15819;DHT22;8010;53.986;12.106;2023-02-15T03:42:29;0.90;99.90
15819;DHT22;8010;53.986;12.106;2023-02-15T03:45:03;0.90;99.90
15819;DHT22;8010;53.986;12.106;2023-02-15T03:47:34;0.80;99.90
15819;DHT22;8010;53.986;12.106;2023-02-15T03:50:12;0.80;99.90
15819;DHT22;8010;53.986;12.106;2023-02-15T03:52:58;0.80;99.90
15819;DHT22;8010;53.986;12.106;2023-02-15T03:55:25;0.90;99.90
15819;DHT22;8010;53.986;12.106;2023-02-15T03:57:52;0.90;99.90
15819;DHT22;8010;53.986;12.106;2023-02-15T04:00:38;0.90;99.90
15819;DHT22;8010;53.986;12.106;2023-02-15T04:03:32;0.90;99.90
15819;DHT22;8010;53.986;12.106;2023-02-15T04:06:00;0.90;99.90
15819;DHT22;8010;53.986;12.106;2023-02-15T04:08:26;0.90;99.90
15819;DHT22;8010;53.986;12.106;2023-02-15T04:11:12;0.90;99.90
15819;DHT22;8010;53.986;12.106;2023-02-15T04:13:37;0.80;99.90
15819;DHT22;8010;53.986;12.106;2023-02-15T04:16:03;0.90;99.90
15819;DHT22;8010;53.986;12.106;2023-02-15T04:21:14;0.90;99.90
15819;DHT22;8010;53.986;12.106;2023-02-15T04:23:58;0.90;99.90
15819;DHT22;8010;53.986;12.106;2023-02-15T04:26:42;0.80;99.90
15819;DHT22;8010;53.986;12.106;2023-02-15T04:29:07;0.80;99.90
15819;DHT22;8010;53.986;12.106;2023-02-15T04:31:33;0.90;99.90
15819;DHT22;8010;53.986;12.106;2023-02-15T04:33:58;0.80;99.90
15819;DHT22;8010;53.986;12.106;2023-02-15T04:36:24;0.80;99.90
15819;DHT22;8010;53.986;12.106;2023-02-15T04:38:49;0.80;99.90
15819;DHT22;8010;53.986;12.106;2023-02-15T04:41:15;0.80;99.90
15819;DHT22;8010;53.986;12.106;2023-02-15T04:43:40;0.80;99.90
15819;DHT22;8010;53.986;12.106;2023-02-15T04:46:06;0.80;99.90
15819;DHT22;8010;53.986;12.106;2023-02-15T04:48:31;0.70;99.90
15819;DHT22;8010;53.986;12.106;2023-02-15T04:50:57;0.80;99.90
15819;DHT22;8010;53.986;12.106;2023-02-15T04:53:22;0.70;99.90
15819;DHT22;8010;53.986;12.106;2023-02-15T04:55:48;0.80;99.90
15819;DHT22;8010;53.986;12.106;2023-02-15T04:58:13;0.80;99.90
15819;DHT22;8010;53.986;12.106;2023-02-15T05:00:39;0.80;99.90
15819;DHT22;8010;53.986;12.106;2023-02-15T05:03:04;0.80;99.90
15819;DHT22;8010;53.986;12.106;2023-02-15T05:05:30;0.80;99.90
15819;DHT22;8010;53.986;12.106;2023-02-15T05:07:56;0.80;99.90
15819;DHT22;8010;53.986;12.106;2023-02-15T05:10:21;0.80;99.90
15819;DHT22;8010;53.986;12.106;2023-02-15T05:12:47;0.80;99.90
15819;DHT22;8010;53.986;12.106;2023-02-15T05:15:13;0.80;99.90
15819;DHT22;8010;53.986;12.106;2023-02-15T05:17:38;0.80;99.90
15819;DHT22;8010;53.986;12.106;2023-02-15T05:20:04;0.80;99.90
15819;DHT22;8010;53.986;12.106;2023-02-15T05:22:30;0.80;99.90
15819;DHT22;8010;53.986;12.106;2023-02-15T05:24:55;0.80;99.90
15819;DHT22;8010;53.986;12.106;2023-02-15T05:27:40;0.80;99.90
15819;DHT22;8010;53.986;12.106;2023-02-15T05:30:24;0.80;99.90
15819;DHT22;8010;53.986;12.106;2023-02-15T05:32:50;0.80;99.90
15819;DHT22;8010;53.986;12.106;2023-02-15T05:35:16;0.80;99.90
15819;DHT22;8010;53.986;12.106;2023-02-15T05:37:41;0.70;99.90
15819;DHT22;8010;53.986;12.106;2023-02-15T05:40:08;0.80;99.90
15819;DHT22;8010;53.986;12.106;2023-02-15T05:42:33;0.80;99.90
15819;DHT22;8010;53.986;12.106;2023-02-15T05:44:59;0.70;99.90
15819;DHT22;8010;53.986;12.106;2023-02-15T05:47:24;0.70;99.90
15819;DHT22;8010;53.986;12.106;2023-02-15T05:49:50;0.70;99.90
15819;DHT22;8010;53.986;12.106;2023-02-15T05:52:15;1.70;99.90
15819;DHT22;8010;53.986;12.106;2023-02-15T05:54:41;0.70;99.90
15819;DHT22;8010;53.986;12.106;2023-02-15T05:57:06;0.70;99.90
15819;DHT22;8010;53.986;12.106;2023-02-15T05:59:32;0.70;99.90
15819;DHT22;8010;53.986;12.106;2023-02-15T06:01:57;0.70;99.90
15819;DHT22;8010;53.986;12.106;2023-02-15T06:04:23;0.70;99.90
15819;DHT22;8010;53.986;12.106;2023-02-15T06:06:49;0.70;99.90
15819;DHT22;8010;53.986;12.106;2023-02-15T06:09:14;0.70;99.90
15819;DHT22;8010;53.986;12.106;2023-02-15T06:11:40;0.70;99.90
15819;DHT22;8010;53.986;12.106;2023-02-15T06:14:06;0.70;99.90
15819;DHT22;8010;53.986;12.106;2023-02-15T06:16:31;0.80;99.90
15819;DHT22;8010;53.986;12.106;2023-02-15T06:18:57;0.80;99.90
15819;DHT22;8010;53.986;12.106;2023-02-15T06:21:24;0.80;99.90
15819;DHT22;8010;53.986;12.106;2023-02-15T06:23:49;0.70;99.90
15819;DHT22;8010;53.986;12.106;2023-02-15T06:26:15;0.70;99.90
15819;DHT22;8010;53.986;12.106;2023-02-15T06:28:40;0.70;99.90
15819;DHT22;8010;53.986;12.106;2023-02-15T06:31:06;0.70;99.90
15819;DHT22;8010;53.986;12.106;2023-02-15T06:33:32;0.70;99.90
15819;DHT22;8010;53.986;12.106;2023-02-15T06:35:59;0.70;99.90
15819;DHT22;8010;53.986;12.106;2023-02-15T06:38:24;0.70;99.90
15819;DHT22;8010;53.986;12.106;2023-02-15T06:40:50;0.70;99.90
15819;DHT22;8010;53.986;12.106;2023-02-15T06:43:16;0.70;99.90
15819;DHT22;8010;53.986;12.106;2023-02-15T06:45:41;-1.00;99.90
15819;DHT22;8010;53.986;12.106;2023-02-15T06:48:07;0.60;99.90
15819;DHT22;8010;53.986;12.106;2023-02-15T06:50:34;0.60;99.90
15819;DHT22;8010;53.986;12.106;2023-02-15T06:52:59;0.60;99.90
15819;DHT22;8010;53.986;12.106;2023-02-15T06:55:25;0.60;99.90
15819;DHT22;8010;53.986;12.106;2023-02-15T06:57:51;0.60;99.90
15819;DHT22;8010;53.986;12.106;2023-02-15T07:00:17;0.70;99.90
15819;DHT22;8010;53.986;12.106;2023-02-15T07:02:44;0.70;99.90
15819;DHT22;8010;53.986;12.106;2023-02-15T07:05:10;0.70;99.90
15819;DHT22;8010;53.986;12.106;2023-02-15T07:07:35;0.70;99.90
15819;DHT22;8010;53.986;12.106;2023-02-15T07:10:01;0.70;99.90
15819;DHT22;8010;53.986;12.106;2023-02-15T07:12:27;0.70;99.90
15819;DHT22;8010;53.986;12.106;2023-02-15T07:15:11;0.70;99.90
15819;DHT22;8010;53.986;12.106;2023-02-15T07:17:37;0.70;99.90
15819;DHT22;8010;53.986;12.106;2023-02-15T07:20:09;0.70;99.90
15819;DHT22;8010;53.986;12.106;2023-02-15T07:22:35;0.70;99.90
15819;DHT22;8010;53.986;12.106;2023-02-15T07:25:05;0.80;99.90
15819;DHT22;8010;53.986;12.106;2023-02-15T07:27:32;0.90;99.90
15819;DHT22;8010;53.986;12.106;2023-02-15T07:29:58;0.90;99.90
15819;DHT22;8010;53.986;12.106;2023-02-15T07:32:23;0.90;99.90
15819;DHT22;8010;53.986;12.106;2023-02-15T07:34:49;1.00;99.90
15819;DHT22;8010;53.986;12.106;2023-02-15T07:37:14;1.10;99.90
15819;DHT22;8010;53.986;12.106;2023-02-15T07:39:40;1.10;99.90
15819;DHT22;8010;53.986;12.106;2023-02-15T07:42:05;1.20;99.90
15819;DHT22;8010;53.986;12.106;2023-02-15T07:44:31;1.20;99.90
15819;DHT22;8010;53.986;12.106;2023-02-15T07:46:56;1.20;99.90
15819;DHT22;8010;53.986;12.106;2023-02-15T07:49:22;1.30;99.90
15819;DHT22;8010;53.986;12.106;2023-02-15T07:51:48;1.30;99.90
15819;DHT22;8010;53.986;12.106;2023-02-15T07:54:13;1.40;99.90
15819;DHT22;8010;53.986;12.106;2023-02-15T07:56:39;1.50;99.90
15819;DHT22;8010;53.986;12.106;2023-02-15T07:59:05;1.50;99.90
15819;DHT22;8010;53.986;12.106;2023-02-15T08:01:36;1.50;99.90
15819;DHT22;8010;53.986;12.106;2023-02-15T08:04:03;1.60;99.90
15819;DHT22;8010;53.986;12.106;2023-02-15T08:06:31;1.60;99.90
15819;DHT22;8010;53.986;12.106;2023-02-15T08:08:57;1.60;99.90
15819;DHT22;8010;53.986;12.106;2023-02-15T08:11:28;1.60;99.90
15819;DHT22;8010;53.986;12.106;2023-02-15T08:14:18;1.70;99.90
15819;DHT22;8010;53.986;12.106;2023-02-15T08:16:45;1.80;99.90
15819;DHT22;8010;53.986;12.106;2023-02-15T08:19:25;1.90;99.90
15819;DHT22;8010;53.986;12.106;2023-02-15T08:21:56;2.00;99.90
15819;DHT22;8010;53.986;12.106;2023-02-15T08:24:23;2.00;99.90
15819;DHT22;8010;53.986;12.106;2023-02-15T08:26:50;2.10;99.90
15819;DHT22;8010;53.986;12.106;2023-02-15T08:29:19;2.10;99.90
15819;DHT22;8010;53.986;12.106;2023-02-15T08:31:45;2.10;99.90
15819;DHT22;8010;53.986;12.106;2023-02-15T08:34:14;2.20;99.90
15819;DHT22;8010;53.986;12.106;2023-02-15T08:36:40;2.30;99.90
15819;DHT22;8010;53.986;12.106;2023-02-15T08:39:06;2.40;99.90
15819;DHT22;8010;53.986;12.106;2023-02-15T08:41:37;2.50;99.90
15819;DHT22;8010;53.986;12.106;2023-02-15T08:44:06;2.50;99.90
15819;DHT22;8010;53.986;12.106;2023-02-15T08:46:34;2.50;99.90
15819;DHT22;8010;53.986;12.106;2023-02-15T08:49:00;2.50;99.90
15819;DHT22;8010;53.986;12.106;2023-02-15T08:51:28;2.50;99.90
15819;DHT22;8010;53.986;12.106;2023-02-15T08:53:58;2.50;99.90
15819;DHT22;8010;53.986;12.106;2023-02-15T08:56:26;2.50;99.90
15819;DHT22;8010;53.986;12.106;2023-02-15T08:58:53;2.50;99.90
15819;DHT22;8010;53.986;12.106;2023-02-15T09:01:22;2.50;99.90
15819;DHT22;8010;53.986;12.106;2023-02-15T09:03:56;2.60;99.90
15819;DHT22;8010;53.986;12.106;2023-02-15T09:06:22;2.60;99.90
15819;DHT22;8010;53.986;12.106;2023-02-15T09:08:49;2.70;99.90
15819;DHT22;8010;53.986;12.106;2023-02-15T09:11:26;2.70;99.90
15819;DHT22;8010;53.986;12.106;2023-02-15T09:14:00;2.80;99.90
15819;DHT22;8010;53.986;12.106;2023-02-15T09:16:28;2.90;99.90
15819;DHT22;8010;53.986;12.106;2023-02-15T09:18:55;2.90;99.90
15819;DHT22;8010;53.986;12.106;2023-02-15T09:21:24;2.90;99.90
15819;DHT22;8010;53.986;12.106;2023-02-15T09:23:51;2.90;99.90
15819;DHT22;8010;53.986;12.106;2023-02-15T09:26:21;2.90;99.90
15819;DHT22;8010;53.986;12.106;2023-02-15T09:28:51;3.00;99.90
15819;DHT22;8010;53.986;12.106;2023-02-15T09:31:22;3.00;99.90
15819;DHT22;8010;53.986;12.106;2023-02-15T09:33:48;3.00;99.90
15819;DHT22;8010;53.986;12.106;2023-02-15T09:36:16;3.10;99.90
15819;DHT22;8010;53.986;12.106;2023-02-15T09:38:42;3.20;99.90
15819;DHT22;8010;53.986;12.106;2023-02-15T09:41:44;3.30;99.90
15819;DHT22;8010;53.986;12.106;2023-02-15T09:49:37;3.50;99.90
15819;DHT22;8010;53.986;12.106;2023-02-15T09:52:27;3.50;99.90
15819;DHT22;8010;53.986;12.106;2023-02-15T09:55:09;3.40;99.90
15819;DHT22;8010;53.986;12.106;2023-02-15T09:58:05;3.40;99.90
15819;DHT22;8010;53.986;12.106;2023-02-15T10:03:22;3.40;99.90
15819;DHT22;8010;53.986;12.106;2023-02-15T10:08:39;3.40;99.90
15819;DHT22;8010;53.986;12.106;2023-02-15T10:11:17;3.40;99.90
15819;DHT22;8010;53.986;12.106;2023-02-15T10:14:23;3.40;99.90
15819;DHT22;8010;53.986;12.106;2023-02-15T10:26:12;3.60;99.90
15819;DHT22;8010;53.986;12.106;2023-02-15T10:29:12;3.60;99.90
15819;DHT22;8010;53.986;12.106;2023-02-15T10:31:50;3.70;99.90
15819;DHT22;8010;53.986;12.106;2023-02-15T10:34:29;3.70;99.90
15819;DHT22;8010;53.986;12.106;2023-02-15T10:37:05;3.70;99.90
15819;DHT22;8010;53.986;12.106;2023-02-15T10:40:00;3.80;99.90
15819;DHT22;8010;53.986;12.106;2023-02-15T10:45:06;3.80;99.90
15819;DHT22;8010;53.986;12.106;2023-02-15T10:48:15;3.80;99.90
15819;DHT22;8010;53.986;12.106;2023-02-15T10:50:57;3.90;99.90
15819;DHT22;8010;53.986;12.106;2023-02-15T11:02:10;4.10;99.90
15819;DHT22;8010;53.986;12.106;2023-02-15T11:05:02;4.10;99.90
15819;DHT22;8010;53.986;12.106;2023-02-15T11:07:38;4.20;99.90
15819;DHT22;8010;53.986;12.106;2023-02-15T11:13:02;4.30;99.90
15819;DHT22;8010;53.986;12.106;2023-02-15T11:15:42;4.40;99.90
15819;DHT22;8010;53.986;12.106;2023-02-15T11:18:15;4.40;99.90
15819;DHT22;8010;53.986;12.106;2023-02-15T11:20:54;4.40;99.90
15819;DHT22;8010;53.986;12.106;2023-02-15T11:23:21;4.40;99.90
15819;DHT22;8010;53.986;12.106;2023-02-15T11:25:57;4.40;99.90
15819;DHT22;8010;53.986;12.106;2023-02-15T11:28:43;4.40;99.90
15819;DHT22;8010;53.986;12.106;2023-02-15T11:31:15;4.30;99.90
15819;DHT22;8010;53.986;12.106;2023-02-15T11:33:53;4.40;99.90
15819;DHT22;8010;53.986;12.106;2023-02-15T11:36:34;4.40;99.90
15819;DHT22;8010;53.986;12.106;2023-02-15T11:39:08;4.50;99.90
15819;DHT22;8010;53.986;12.106;2023-02-15T11:41:38;4.50;99.90
15819;DHT22;8010;53.986;12.106;2023-02-15T11:44:11;4.60;99.90
15819;DHT22;8010;53.986;12.106;2023-02-15T11:46:38;4.60;99.90
15819;DHT22;8010;53.986;12.106;2023-02-15T11:49:29;4.70;99.90
15819;DHT22;8010;53.986;12.106;2023-02-15T11:51:57;4.80;99.90
15819;DHT22;8010;53.986;12.106;2023-02-15T11:54:34;4.80;99.90
15819;DHT22;8010;53.986;12.106;2023-02-15T11:59:47;4.90;99.90
15819;DHT22;8010;53.986;12.106;2023-02-15T12:02:20;5.00;99.90
15819;DHT22;8010;53.986;12.106;2023-02-15T12:04:52;5.00;99.90
15819;DHT22;8010;53.986;12.106;2023-02-15T12:07:30;5.10;99.90
15819;DHT22;8010;53.986;12.106;2023-02-15T12:10:02;5.10;99.90
15819;DHT22;8010;53.986;12.106;2023-02-15T12:12:37;5.10;99.90
15819;DHT22;8010;53.986;12.106;2023-02-15T12:15:08;5.10;99.90
15819;DHT22;8010;53.986;12.106;2023-02-15T12:17:39;5.10;99.90
15819;DHT22;8010;53.986;12.106;2023-02-15T12:22:46;5.10;99.90
15819;DHT22;8010;53.986;12.106;2023-02-15T12:25:37;5.10;99.90
15819;DHT22;8010;53.986;12.106;2023-02-15T12:28:26;5.10;99.90
15819;DHT22;8010;53.986;12.106;2023-02-15T12:30:53;5.00;99.90
15819;DHT22;8010;53.986;12.106;2023-02-15T12:33:41;5.00;99.90
15819;DHT22;8010;53.986;12.106;2023-02-15T12:36:19;5.00;99.90
15819;DHT22;8010;53.986;12.106;2023-02-15T12:41:37;4.90;99.90
15819;DHT22;8010;53.986;12.106;2023-02-15T12:44:06;4.90;99.90
15819;DHT22;8010;53.986;12.106;2023-02-15T12:46:33;4.90;99.90
15819;DHT22;8010;53.986;12.106;2023-02-15T12:51:45;4.80;99.90
15819;DHT22;8010;53.986;12.106;2023-02-15T12:54:17;4.80;99.90
15819;DHT22;8010;53.986;12.106;2023-02-15T12:56:42;4.80;99.90
15819;DHT22;8010;53.986;12.106;2023-02-15T12:59:13;4.80;99.90
15819;DHT22;8010;53.986;12.106;2023-02-15T13:01:41;4.70;99.90
15819;DHT22;8010;53.986;12.106;2023-02-15T13:04:28;4.70;99.90
15819;DHT22;8010;53.986;12.106;2023-02-15T13:07:01;4.80;99.90
15819;DHT22;8010;53.986;12.106;2023-02-15T13:11:57;4.90;99.90
15819;DHT22;8010;53.986;12.106;2023-02-15T13:14:34;4.90;99.90
15819;DHT22;8010;53.986;12.106;2023-02-15T13:17:03;4.80;99.90
15819;DHT22;8010;53.986;12.106;2023-02-15T13:19:51;4.80;99.90
15819;DHT22;8010;53.986;12.106;2023-02-15T13:22:22;4.90;99.90
15819;DHT22;8010;53.986;12.106;2023-02-15T13:24:56;4.90;99.90
15819;DHT22;8010;53.986;12.106;2023-02-15T13:27:27;4.90;99.90
15819;DHT22;8010;53.986;12.106;2023-02-15T13:29:57;4.90;99.90
15819;DHT22;8010;53.986;12.106;2023-02-15T13:32:31;4.90;99.90
15819;DHT22;8010;53.986;12.106;2023-02-15T13:35:00;5.00;99.90
15819;DHT22;8010;53.986;12.106;2023-02-15T13:37:41;5.00;99.90
15819;DHT22;8010;53.986;12.106;2023-02-15T13:40:29;5.00;99.90
15819;DHT22;8010;53.986;12.106;2023-02-15T13:45:57;5.00;99.90
15819;DHT22;8010;53.986;12.106;2023-02-15T13:51:05;5.10;99.90
15819;DHT22;8010;53.986;12.106;2023-02-15T13:54:11;5.10;99.90
15819;DHT22;8010;53.986;12.106;2023-02-15T13:56:59;5.10;99.90
15819;DHT22;8010;53.986;12.106;2023-02-15T14:05:09;5.20;99.90
15819;DHT22;8010;53.986;12.106;2023-02-15T14:07:55;5.10;99.90
15819;DHT22;8010;53.986;12.106;2023-02-15T14:12:58;5.10;99.90
15819;DHT22;8010;53.986;12.106;2023-02-15T14:15:48;5.10;99.90
15819;DHT22;8010;53.986;12.106;2023-02-15T14:18:42;5.20;99.90
15819;DHT22;8010;53.986;12.106;2023-02-15T14:21:28;5.10;99.90
15819;DHT22;8010;53.986;12.106;2023-02-15T14:27:10;5.00;99.90
15819;DHT22;8010;53.986;12.106;2023-02-15T14:29:56;5.00;99.90
15819;DHT22;8010;53.986;12.106;2023-02-15T14:32:44;5.00;99.90
15819;DHT22;8010;53.986;12.106;2023-02-15T14:35:16;4.90;99.90
15819;DHT22;8010;53.986;12.106;2023-02-15T14:49:16;5.00;99.90
15819;DHT22;8010;53.986;12.106;2023-02-15T14:54:09;5.00;99.90
15819;DHT22;8010;53.986;12.106;2023-02-15T14:56:35;4.90;99.90
15819;DHT22;8010;53.986;12.106;2023-02-15T14:59:19;4.90;99.90
15819;DHT22;8010;53.986;12.106;2023-02-15T15:02:13;4.90;99.90
15819;DHT22;8010;53.986;12.106;2023-02-15T15:05:02;4.90;99.90
15819;DHT22;8010;53.986;12.106;2023-02-15T15:07:54;4.80;99.90
15819;DHT22;8010;53.986;12.106;2023-02-15T15:12:53;4.90;99.90
15819;DHT22;8010;53.986;12.106;2023-02-15T15:18:10;4.90;99.90
15819;DHT22;8010;53.986;12.106;2023-02-15T15:20:42;4.80;99.90
15819;DHT22;8010;53.986;12.106;2023-02-15T15:25:56;4.80;99.90
15819;DHT22;8010;53.986;12.106;2023-02-15T15:31:24;4.70;99.90
15819;DHT22;8010;53.986;12.106;2023-02-15T15:37:08;4.70;99.90
15819;DHT22;8010;53.986;12.106;2023-02-15T15:50:52;4.60;99.90
15819;DHT22;8010;53.986;12.106;2023-02-15T15:53:21;4.60;99.90
15819;DHT22;8010;53.986;12.106;2023-02-15T15:55:50;4.60;99.90
15819;DHT22;8010;53.986;12.106;2023-02-15T15:58:19;4.50;99.90
15819;DHT22;8010;53.986;12.106;2023-02-15T16:00:51;4.40;99.90
15819;DHT22;8010;53.986;12.106;2023-02-15T16:03:23;4.40;99.90
15819;DHT22;8010;53.986;12.106;2023-02-15T16:05:49;4.40;99.90
15819;DHT22;8010;53.986;12.106;2023-02-15T16:08:30;4.40;99.90
15819;DHT22;8010;53.986;12.106;2023-02-15T16:10:56;4.50;99.90
15819;DHT22;8010;53.986;12.106;2023-02-15T16:13:23;4.40;99.90
15819;DHT22;8010;53.986;12.106;2023-02-15T16:15:53;4.50;99.90
15819;DHT22;8010;53.986;12.106;2023-02-15T16:18:23;4.50;99.90
15819;DHT22;8010;53.986;12.106;2023-02-15T16:21:01;4.50;99.90
15819;DHT22;8010;53.986;12.106;2023-02-15T16:28:54;4.50;99.90
15819;DHT22;8010;53.986;12.106;2023-02-15T16:31:21;4.40;99.90
15819;DHT22;8010;53.986;12.106;2023-02-15T16:33:51;4.40;99.90
15819;DHT22;8010;53.986;12.106;2023-02-15T16:36:25;4.40;99.90
15819;DHT22;8010;53.986;12.106;2023-02-15T16:41:25;4.40;99.90
15819;DHT22;8010;53.986;12.106;2023-02-15T16:43:53;4.40;99.90
15819;DHT22;8010;53.986;12.106;2023-02-15T16:46:30;4.40;99.90
15819;DHT22;8010;53.986;12.106;2023-02-15T16:49:00;4.30;99.90
15819;DHT22;8010;53.986;12.106;2023-02-15T16:51:29;4.30;99.90
15819;DHT22;8010;53.986;12.106;2023-02-15T16:53:57;4.40;99.90
15819;DHT22;8010;53.986;12.106;2023-02-15T16:56:30;4.30;99.90
15819;DHT22;8010;53.986;12.106;2023-02-15T16:58:57;4.40;99.90
15819;DHT22;8010;53.986;12.106;2023-02-15T17:01:26;4.30;99.90
15819;DHT22;8010;53.986;12.106;2023-02-15T17:04:32;4.30;99.90
15819;DHT22;8010;53.986;12.106;2023-02-15T17:07:06;4.20;99.90
15819;DHT22;8010;53.986;12.106;2023-02-15T17:09:57;4.20;99.90
15819;DHT22;8010;53.986;12.106;2023-02-15T17:12:47;4.10;99.90
15819;DHT22;8010;53.986;12.106;2023-02-15T17:15:33;4.10;99.90
15819;DHT22;8010;53.986;12.106;2023-02-15T17:18:06;4.10;99.90
15819;DHT22;8010;53.986;12.106;2023-02-15T17:20:39;4.10;99.90
15819;DHT22;8010;53.986;12.106;2023-02-15T17:23:15;4.10;99.90
15819;DHT22;8010;53.986;12.106;2023-02-15T17:25:43;4.00;99.90
15819;DHT22;8010;53.986;12.106;2023-02-15T17:28:20;4.00;99.90
15819;DHT22;8010;53.986;12.106;2023-02-15T17:30:47;3.90;99.90
15819;DHT22;8010;53.986;12.106;2023-02-15T17:36:20;3.80;99.90
15819;DHT22;8010;53.986;12.106;2023-02-15T17:41:23;5.50;99.90
15819;DHT22;8010;53.986;12.106;2023-02-15T17:43:48;3.60;99.90
15819;DHT22;8010;53.986;12.106;2023-02-15T17:46:14;3.60;99.90
15819;DHT22;8010;53.986;12.106;2023-02-15T17:48:41;3.50;99.90
15819;DHT22;8010;53.986;12.106;2023-02-15T17:51:11;3.50;99.90
15819;DHT22;8010;53.986;12.106;2023-02-15T17:53:38;3.50;99.90
15819;DHT22;8010;53.986;12.106;2023-02-15T17:56:03;3.50;99.90
15819;DHT22;8010;53.986;12.106;2023-02-15T17:58:35;3.50;99.90
15819;DHT22;8010;53.986;12.106;2023-02-15T18:01:06;3.50;99.90
15819;DHT22;8010;53.986;12.106;2023-02-15T18:03:52;3.50;99.90
15819;DHT22;8010;53.986;12.106;2023-02-15T18:06:42;3.50;99.90
15819;DHT22;8010;53.986;12.106;2023-02-15T18:09:27;3.50;99.90
15819;DHT22;8010;53.986;12.106;2023-02-15T18:12:22;3.50;99.90
15819;DHT22;8010;53.986;12.106;2023-02-15T18:14:48;3.50;99.90
15819;DHT22;8010;53.986;12.106;2023-02-15T18:17:15;3.60;99.90
15819;DHT22;8010;53.986;12.106;2023-02-15T18:19:43;3.60;99.90
15819;DHT22;8010;53.986;12.106;2023-02-15T18:22:14;3.60;99.90
15819;DHT22;8010;53.986;12.106;2023-02-15T18:24:42;3.50;99.90
15819;DHT22;8010;53.986;12.106;2023-02-15T18:27:11;3.50;99.90
15819;DHT22;8010;53.986;12.106;2023-02-15T18:29:37;3.50;99.90
15819;DHT22;8010;53.986;12.106;2023-02-15T18:32:12;3.50;99.90
15819;DHT22;8010;53.986;12.106;2023-02-15T18:34:40;3.40;99.90
15819;DHT22;8010;53.986;12.106;2023-02-15T18:37:12;3.40;99.90